createdAt,value
2023-02-20T00:00:38.204Z,14.10
2023-02-20T00:03:44.463Z,15.70
2023-02-20T00:06:50.977Z,16.80
2023-02-20T00:09:57.183Z,15.20
2023-02-20T00:13:03.305Z,14.10
2023-02-20T00:16:10.538Z,16.00
2023-02-20T00:19:17.040Z,14.70
2023-02-20T00:22:24.638Z,16.70
2023-02-20T00:25:31.088Z,13.00
2023-02-20T00:28:37.279Z,16.80
2023-02-20T00:31:43.581Z,13.20
2023-02-20T00:37:55.066Z,14.90
2023-02-20T00:41:01.344Z,14.10
2023-02-20T00:44:07.991Z,11.90
2023-02-20T00:47:14.183Z,14.00
2023-02-20T00:50:21.073Z,15.70
2023-02-20T00:53:27.229Z,16.00
2023-02-20T00:56:33.335Z,15.10
2023-02-20T00:59:39.535Z,12.10
2023-02-20T01:02:45.809Z,13.60
2023-02-20T01:08:56.719Z,13.10
2023-02-20T01:12:02.973Z,13.80
2023-02-20T01:15:12.813Z,14.20
2023-02-20T01:18:19.192Z,11.90
2023-02-20T01:24:29.896Z,14.40
2023-02-20T01:27:36.292Z,13.30
2023-02-20T01:30:42.504Z,15.30
2023-02-20T01:33:48.728Z,12.40
2023-02-20T01:36:56.596Z,11.70
2023-02-20T01:40:03.271Z,14.30
2023-02-20T01:43:09.613Z,11.20
2023-02-20T01:46:49.304Z,11.90
2023-02-20T01:50:03.461Z,12.50
2023-02-20T01:53:12.949Z,14.90
2023-02-20T01:56:19.360Z,11.40
2023-02-20T02:02:32.981Z,9.50
2023-02-20T02:05:42.142Z,11.40
2023-02-20T02:08:48.909Z,12.40
2023-02-20T02:11:55.828Z,15.20
2023-02-20T02:15:02.272Z,12.50
2023-02-20T02:18:29.471Z,14.00
2023-02-20T02:22:16.522Z,11.00
2023-02-20T02:25:37.868Z,14.80
2023-02-20T02:29:31.602Z,13.70
2023-02-20T02:32:58.085Z,10.40
2023-02-20T02:36:36.060Z,12.60
2023-02-20T02:39:50.498Z,11.80
2023-02-20T02:43:06.832Z,11.90
2023-02-20T02:46:22.412Z,13.20
2023-02-20T02:49:32.825Z,11.10
2023-02-20T02:52:48.752Z,11.10
2023-02-20T02:55:55.005Z,10.30
2023-02-20T02:59:01.445Z,11.30
2023-02-20T03:02:13.206Z,11.30
2023-02-20T03:05:23.991Z,10.80
2023-02-20T03:08:36.602Z,12.60
2023-02-20T03:11:44.611Z,12.00
2023-02-20T03:15:15.654Z,10.20
2023-02-20T03:18:30.898Z,11.00
2023-02-20T03:21:38.695Z,11.80
2023-02-20T03:24:56.378Z,11.80
2023-02-20T03:28:05.239Z,10.70
2023-02-20T03:31:16.929Z,10.50
2023-02-20T03:34:45.506Z,9.90
2023-02-20T03:38:10.495Z,10.30
2023-02-20T03:41:35.909Z,10.60
2023-02-20T03:44:43.156Z,12.40
2023-02-20T03:47:53.706Z,11.80
2023-02-20T03:51:17.463Z,11.00
2023-02-20T03:54:23.719Z,9.40
2023-02-20T03:57:34.945Z,12.30
2023-02-20T04:00:45.949Z,10.70
2023-02-20T04:03:55.388Z,10.90
2023-02-20T04:07:05.450Z,10.80
2023-02-20T04:10:18.664Z,10.40
2023-02-20T04:13:25.828Z,10.90
2023-02-20T04:16:35.825Z,9.50
2023-02-20T04:19:42.416Z,9.90
2023-02-20T04:22:51.827Z,10.20
2023-02-20T04:26:03.977Z,10.50
2023-02-20T04:29:10.411Z,9.60
2023-02-20T04:32:16.692Z,8.10
2023-02-20T04:38:28.027Z,10.80
2023-02-20T04:41:34.343Z,8.40
2023-02-20T04:47:46.592Z,9.00
2023-02-20T04:50:53.685Z,8.60
2023-02-20T04:53:59.812Z,11.60
2023-02-20T04:57:06.291Z,9.30
2023-02-20T05:00:14.607Z,10.00
2023-02-20T05:03:20.882Z,11.80
2023-02-20T05:09:32.248Z,9.50
2023-02-20T05:12:38.522Z,6.90
2023-02-20T05:18:49.535Z,12.30
2023-02-20T05:22:13.735Z,9.70
2023-02-20T05:25:19.973Z,9.50
2023-02-20T05:28:26.566Z,10.10
2023-02-20T05:31:32.868Z,9.00
2023-02-20T05:37:43.611Z,8.70
2023-02-20T05:43:57.540Z,13.10
2023-02-20T05:47:04.674Z,11.70
2023-02-20T05:50:11.552Z,9.60
2023-02-20T05:53:17.837Z,10.80
2023-02-20T05:59:28.968Z,9.90
2023-02-20T06:02:36.126Z,12.80
2023-02-20T06:05:42.442Z,11.60
2023-02-20T06:11:54.650Z,10.40
2023-02-20T06:15:00.835Z,12.90
2023-02-20T06:18:06.975Z,24.20
2023-02-20T06:21:13.564Z,15.30
2023-02-20T06:24:20.376Z,18.80
2023-02-20T06:27:26.635Z,14.90
2023-02-20T06:30:33.601Z,13.80
2023-02-20T06:33:39.852Z,12.00
2023-02-20T06:36:46.787Z,13.10
2023-02-20T06:39:52.964Z,11.30
2023-02-20T06:42:59.135Z,12.00
2023-02-20T06:46:05.481Z,11.50
2023-02-20T06:52:17.276Z,10.60
2023-02-20T06:58:28.017Z,9.90
2023-02-20T07:01:41.853Z,10.30
2023-02-20T07:04:51.352Z,9.80
2023-02-20T07:07:57.722Z,9.90
2023-02-20T07:11:03.968Z,10.20
2023-02-20T07:14:10.393Z,11.60
2023-02-20T07:17:16.624Z,10.70
2023-02-20T07:20:22.869Z,9.00
2023-02-20T07:23:29.041Z,9.40
2023-02-20T07:26:37.190Z,12.00
2023-02-20T07:29:45.826Z,8.70
2023-02-20T07:32:52.193Z,11.00
2023-02-20T07:39:04.350Z,10.10
2023-02-20T07:42:10.902Z,8.80
2023-02-20T07:45:17.439Z,9.80
2023-02-20T07:48:23.666Z,8.20
2023-02-20T07:51:29.865Z,8.50
2023-02-20T07:54:36.037Z,8.00
2023-02-20T07:57:42.461Z,7.70
2023-02-20T08:00:48.664Z,8.70
2023-02-20T08:03:54.905Z,9.00
2023-02-20T08:07:01.060Z,8.70
2023-02-20T08:10:08.679Z,8.90
2023-02-20T08:13:14.913Z,8.50
2023-02-20T08:16:21.185Z,10.00
2023-02-20T08:19:27.467Z,9.30
2023-02-20T08:25:49.027Z,8.10
2023-02-20T08:28:55.564Z,8.20
2023-02-20T08:32:01.824Z,9.50
2023-02-20T08:35:08.968Z,6.70
2023-02-20T08:38:29.524Z,8.20
2023-02-20T08:41:35.686Z,7.80
2023-02-20T08:44:43.578Z,7.90
2023-02-20T08:47:49.937Z,6.30
2023-02-20T08:54:00.940Z,7.70
2023-02-20T08:57:07.357Z,7.10
2023-02-20T09:00:17.664Z,7.50
2023-02-20T09:03:23.915Z,7.20
2023-02-20T09:06:30.206Z,6.60
2023-02-20T09:12:42.236Z,7.80
2023-02-20T09:15:48.470Z,7.40
2023-02-20T09:18:57.522Z,8.30
2023-02-20T09:22:04.046Z,7.20
2023-02-20T09:28:15.425Z,7.30
2023-02-20T09:31:21.778Z,7.50
2023-02-20T09:34:28.087Z,6.90
2023-02-20T09:37:34.351Z,8.00
2023-02-20T09:43:52.831Z,5.80
2023-02-20T09:47:03.426Z,6.40
2023-02-20T09:50:16.097Z,8.40
2023-02-20T09:53:31.076Z,5.80
2023-02-20T09:56:42.254Z,6.00
2023-02-20T09:59:52.327Z,5.80
2023-02-20T10:03:08.667Z,8.50
2023-02-20T10:06:20.020Z,5.70
2023-02-20T10:09:26.180Z,6.50
2023-02-20T10:12:39.682Z,6.00
2023-02-20T10:15:55.658Z,6.60
2023-02-20T10:19:16.409Z,6.20
2023-02-20T10:22:27.364Z,8.60
2023-02-20T10:25:37.246Z,8.90
2023-02-20T10:28:43.704Z,7.20
2023-02-20T10:31:54.173Z,7.20
2023-02-20T10:35:04.356Z,9.10
2023-02-20T10:38:15.088Z,8.10
2023-02-20T10:41:28.312Z,8.90
2023-02-20T10:44:51.627Z,6.70
2023-02-20T10:48:06.465Z,6.30
2023-02-20T10:51:18.330Z,6.00
2023-02-20T10:54:29.334Z,3.40
2023-02-20T10:57:43.069Z,5.00
2023-02-20T11:00:52.708Z,3.80
2023-02-20T11:04:04.109Z,6.40
2023-02-20T11:07:13.748Z,8.50
2023-02-20T11:10:20.723Z,6.00
2023-02-20T11:13:27.888Z,4.40
2023-02-20T11:16:38.163Z,5.40
2023-02-20T11:19:47.606Z,4.40
2023-02-20T11:22:53.871Z,5.00
2023-02-20T11:26:14.169Z,6.60
2023-02-20T11:29:24.143Z,6.20
2023-02-20T11:32:34.638Z,5.60
2023-02-20T11:35:43.148Z,5.00
2023-02-20T11:38:49.591Z,5.80
2023-02-20T11:42:12.642Z,6.70
2023-02-20T11:45:24.677Z,5.90
2023-02-20T11:48:30.880Z,7.00
2023-02-20T11:51:39.795Z,6.20
2023-02-20T11:54:47.342Z,6.50
2023-02-20T11:57:53.917Z,7.10
2023-02-20T12:01:00.162Z,5.30
2023-02-20T12:04:23.611Z,6.00
2023-02-20T12:07:35.031Z,5.20
2023-02-20T12:10:46.364Z,5.70
2023-02-20T12:13:54.336Z,6.60
2023-02-20T12:17:25.064Z,4.70
2023-02-20T12:20:32.497Z,8.60
2023-02-20T12:23:50.286Z,7.10
2023-02-20T12:27:00.386Z,8.10
2023-02-20T12:30:25.986Z,10.50
2023-02-20T12:33:58.255Z,8.10
2023-02-20T12:37:13.126Z,9.60
2023-02-20T12:40:38.640Z,8.80
2023-02-20T12:43:57.444Z,9.80
2023-02-20T12:47:24.532Z,7.40
2023-02-20T12:50:48.191Z,9.30
2023-02-20T12:54:08.104Z,9.80
2023-02-20T12:57:20.885Z,8.30
2023-02-20T13:00:34.025Z,7.50
2023-02-20T13:03:50.494Z,11.10
2023-02-20T13:07:05.458Z,95.60
2023-02-20T13:10:17.606Z,106.00
2023-02-20T13:13:26.035Z,15.40
2023-02-20T13:16:39.383Z,85.30
2023-02-20T13:19:56.240Z,62.80
2023-02-20T13:23:04.567Z,68.70
2023-02-20T13:26:40.987Z,31.20
2023-02-20T13:30:00.974Z,15.20
2023-02-20T13:33:24.155Z,10.60
2023-02-20T13:36:45.073Z,11.40
2023-02-20T13:39:51.303Z,8.90
2023-02-20T13:43:27.084Z,9.40
2023-02-20T13:47:00.471Z,13.30
2023-02-20T13:50:20.158Z,10.30
2023-02-20T13:53:26.865Z,9.90
2023-02-20T13:56:47.379Z,10.50
2023-02-20T13:59:56.027Z,34.90
2023-02-20T14:03:02.678Z,19.00
2023-02-20T14:06:12.509Z,17.70
2023-02-20T14:09:23.375Z,11.70
2023-02-20T14:12:29.628Z,14.00
2023-02-20T14:15:46.425Z,12.20
2023-02-20T14:18:53.098Z,15.20
2023-02-20T14:22:14.807Z,10.40
2023-02-20T14:25:27.735Z,12.30
2023-02-20T14:28:36.727Z,11.20
2023-02-20T14:31:43.601Z,10.10
2023-02-20T14:34:55.446Z,10.10
2023-02-20T14:38:12.336Z,10.60
2023-02-20T14:41:22.545Z,12.10
2023-02-20T14:44:30.213Z,15.90
2023-02-20T14:47:37.735Z,12.60
2023-02-20T14:50:43.958Z,11.80
2023-02-20T14:54:00.383Z,12.30
2023-02-20T14:57:07.073Z,12.00
2023-02-20T15:00:33.541Z,10.70
2023-02-20T15:03:39.725Z,10.60
2023-02-20T15:13:04.916Z,10.60
2023-02-20T15:16:19.391Z,13.00
2023-02-20T15:19:36.404Z,10.40
2023-02-20T15:22:42.636Z,10.30
2023-02-20T15:25:48.831Z,12.60
2023-02-20T15:29:13.532Z,11.60
2023-02-20T15:32:22.982Z,10.70
2023-02-20T15:35:31.924Z,9.70
2023-02-20T15:38:38.667Z,10.30
2023-02-20T15:41:45.020Z,9.50
2023-02-20T15:47:57.133Z,9.60
2023-02-20T15:51:05.769Z,12.60
2023-02-20T15:54:19.137Z,11.60
2023-02-20T15:57:25.450Z,10.30
2023-02-20T16:03:51.263Z,10.80
2023-02-20T16:06:58.782Z,10.60
2023-02-20T16:13:18.788Z,10.70
2023-02-20T16:16:31.649Z,11.10
2023-02-20T16:19:42.647Z,9.70
2023-02-20T16:22:49.323Z,12.30
2023-02-20T16:29:03.195Z,10.80
2023-02-20T16:32:29.281Z,12.40
2023-02-20T16:35:35.583Z,10.50
2023-02-20T16:41:46.789Z,9.50
2023-02-20T16:44:55.260Z,10.80
2023-02-20T16:48:01.695Z,9.90
2023-02-20T16:54:14.674Z,11.30
2023-02-20T16:57:23.876Z,10.00
2023-02-20T17:00:32.375Z,10.50
2023-02-20T17:03:38.655Z,10.40
2023-02-20T17:09:49.388Z,8.60
2023-02-20T17:16:00.740Z,10.40
2023-02-20T17:19:06.983Z,11.50
2023-02-20T17:22:14.481Z,15.70
2023-02-20T17:25:24.320Z,17.80
2023-02-20T17:28:30.659Z,11.30
2023-02-20T17:34:41.857Z,11.80
2023-02-20T17:37:48.064Z,13.50
2023-02-20T17:40:54.308Z,11.20
2023-02-20T17:47:05.543Z,25.30
2023-02-20T17:50:12.174Z,29.50
2023-02-20T17:53:18.482Z,40.10
2023-02-20T17:56:24.879Z,46.20
2023-02-20T17:59:31.538Z,78.90
2023-02-20T18:02:37.801Z,66.80
2023-02-20T18:08:50.758Z,42.50
2023-02-20T18:11:56.938Z,27.50
2023-02-20T18:18:08.123Z,26.70
2023-02-20T18:21:21.695Z,46.40
2023-02-20T18:24:30.135Z,34.80
2023-02-20T18:27:36.430Z,20.90
2023-02-20T18:33:47.360Z,19.90
2023-02-20T18:39:58.104Z,14.40
2023-02-20T18:43:04.415Z,24.70
2023-02-20T18:46:10.831Z,14.90
2023-02-20T18:49:17.230Z,18.00
2023-02-20T18:52:23.870Z,27.90
2023-02-20T18:55:30.143Z,40.20
2023-02-20T19:01:43.578Z,19.70
2023-02-20T19:04:51.437Z,26.40
2023-02-20T19:07:58.927Z,19.60
2023-02-20T19:11:05.247Z,15.20
2023-02-20T19:14:11.612Z,23.70
2023-02-20T19:20:27.495Z,19.50
2023-02-20T19:23:34.920Z,16.20
2023-02-20T19:29:46.921Z,15.30
2023-02-20T19:32:53.117Z,51.30
2023-02-20T19:39:04.008Z,19.40
2023-02-20T19:45:15.989Z,18.10
2023-02-20T19:48:22.105Z,12.90
2023-02-20T19:51:28.437Z,11.60
2023-02-20T19:54:34.816Z,13.00
2023-02-20T19:57:41.060Z,12.40
2023-02-20T20:03:51.797Z,12.70
2023-02-20T20:06:58.086Z,10.90
2023-02-20T20:10:05.151Z,8.80
2023-02-20T20:13:11.387Z,9.40
2023-02-20T20:19:22.411Z,9.60
2023-02-20T20:22:29.097Z,9.40
2023-02-20T20:25:35.617Z,8.20
2023-02-20T20:28:42.279Z,10.60
2023-02-20T20:31:49.046Z,9.20
2023-02-20T20:34:56.602Z,10.40
2023-02-20T20:38:06.053Z,9.30
2023-02-20T20:41:14.445Z,8.80
2023-02-20T20:44:23.873Z,9.40
2023-02-20T20:47:31.992Z,12.70
2023-02-20T20:50:38.227Z,9.50
2023-02-20T20:56:50.083Z,8.40
2023-02-20T20:59:58.745Z,8.00
2023-02-20T21:03:06.015Z,7.80
2023-02-20T21:06:12.933Z,7.90
2023-02-20T21:09:19.100Z,10.40
2023-02-20T21:15:30.280Z,9.10
2023-02-20T21:18:37.555Z,8.30
2023-02-20T21:21:43.814Z,9.10
2023-02-20T21:27:54.876Z,8.60
2023-02-20T21:34:19.136Z,9.50
2023-02-20T21:37:25.407Z,11.30
2023-02-20T21:40:31.746Z,10.60
2023-02-20T21:43:55.492Z,9.60
2023-02-20T21:47:03.086Z,9.50
2023-02-20T21:50:10.772Z,10.80
2023-02-20T21:53:17.264Z,9.10
2023-02-20T21:56:23.537Z,9.40
2023-02-20T21:59:28.832Z,9.40
2023-02-20T22:02:33.833Z,9.10
2023-02-20T22:05:38.845Z,15.50
2023-02-20T22:09:02.627Z,10.30
2023-02-20T22:12:27.005Z,12.10
2023-02-20T22:15:50.906Z,7.40
2023-02-20T22:19:15.417Z,7.50
2023-02-20T22:22:39.392Z,8.10
2023-02-20T22:26:03.348Z,7.00
2023-02-20T22:29:27.031Z,7.60
2023-02-20T22:32:50.725Z,15.70
2023-02-20T22:36:14.576Z,12.90
2023-02-20T22:39:38.866Z,8.70
2023-02-20T22:43:02.761Z,9.80
2023-02-20T22:46:28.337Z,5.90
2023-02-20T22:49:52.111Z,7.60
2023-02-20T22:53:15.896Z,7.50
2023-02-20T22:56:40.560Z,5.70
2023-02-20T23:00:03.886Z,7.60
2023-02-20T23:03:27.312Z,5.30
2023-02-20T23:06:50.625Z,7.30
2023-02-20T23:10:14.325Z,5.90
2023-02-20T23:13:38.068Z,5.50
2023-02-20T23:17:01.948Z,7.70
2023-02-20T23:20:29.312Z,6.00
2023-02-20T23:23:53.087Z,6.10
2023-02-20T23:27:16.664Z,6.50
2023-02-20T23:30:40.569Z,7.10
2023-02-20T23:34:03.990Z,7.70
2023-02-20T23:37:28.282Z,6.50
2023-02-20T23:40:51.744Z,6.10
2023-02-20T23:44:15.238Z,5.90
2023-02-20T23:47:38.888Z,8.20
2023-02-20T23:51:02.778Z,8.20
2023-02-20T23:54:26.585Z,6.70
2023-02-20T23:57:50.129Z,6.80
